Etusivu
METAR-TAF:

METAR-TAF

Lentoasemat :

Perry Lefors Field

Pampa, Texas, Yhdysvallat

Leveyspiiri: 35-36-46N, Pituuspiiri: 100-59-46W, korkeus merenpinnasta: 989 m

Tämänhetkinen sää

Tämä raportti tehtiin 11 tuntia ja 50 minuuttia sitten, kello 01.55 UTC
Tuuli 9 kn idästä
Lämpötila 18°C
Kosteus 68%
Ilmanpaine 1013 hPa
Näkyvyys: 16.1 km
Hajanaisia pilviä 1200 ft:n korkeudessa
Hajanaisia pilviä 1900 ft:n korkeudessa
Hajonneita pilviä 12000 ft:n korkeudessa
ukkosmyrsky, sadetta

METAR: KPPA 190155Z AUTO 10009KT 10SM TSRA SCT012 SCT019 BKN120 18/12 A2991 RMK AO2 LTG DSNT ALQS T01800118

Aika: 08:45 (13:45 UTC)


TAF: puuttuu

Säähavainnot ja -ennusteet yli 4000 lentoasemalta (METAR- ja TAF-raportit).

Käytössä olevat sääasemat on merkitty karttaan keltaisilla ja punaisilla pisteillä.

Aseta hiiri pisteen päälle nähdäksesi sääaseman nimen.

Klikkaa sitten nähdäksesi säähavainnot ja -ennusteet.

Kartan vaihtaminen: klikkaa mustalla rastilla varustettuja vihreitä pisteitä, niin voit zoomata sisään; viivalla varustettua vihreää pistettä, niin voit zoomata ulos tai vihreitä nuolia, niin pääset viereisille kartoille.


METAR-TAF: